Time;durP1;ratioP1;P1;durP2;ratioP2;P2;SDS_P1;SDS_P2;PMS_P1;PMS_P2;Temp;Humidity;BMP_temperature;BMP_pressure;BME280_temperature;BME280_humidity;BME280_pressure;Samples;Min_cycle;Max_cycle;Signal;HPM_P1;HPM_P2
2021/10/21 00:02:13;;;;;;;1.70;1.60;;;;;;;15.39;87.85;98448.63;10224516;28;20582;-66
2021/10/21 00:07:15;;;;;;;2.70;1.52;;;;;;;15.35;87.60;98445.50;10235128;28;20077;-64
2021/10/21 00:12:17;;;;;;;1.83;1.70;;;;;;;15.35;87.40;98433.94;10231028;28;20583;-65
2021/10/21 00:17:18;;;;;;;2.58;1.92;;;;;;;15.35;87.22;98413.31;10225640;28;20100;-64
2021/10/21 00:22:20;;;;;;;2.88;1.98;;;;;;;15.35;87.49;98388.38;10225617;28;21009;-64
2021/10/21 00:27:22;;;;;;;4.13;1.52;;;;;;;15.31;87.30;98374.56;10230678;28;20067;-65
2021/10/21 00:32:23;;;;;;;2.70;1.40;;;;;;;15.34;87.62;98346.50;10226367;28;20084;-65
2021/10/21 00:37:25;;;;;;;1.60;1.33;;;;;;;15.26;87.80;98360.09;10221115;28;20130;-64
2021/10/21 00:42:26;;;;;;;1.40;1.00;;;;;;;15.29;87.36;98331.03;10223273;28;20086;-64
2021/10/21 00:47:28;;;;;;;2.20;1.00;;;;;;;15.31;86.93;98304.88;10220772;28;20085;-65
2021/10/21 00:52:31;;;;;;;1.73;1.00;;;;;;;15.32;86.12;98289.59;10221506;28;20083;-65
2021/10/21 00:57:33;;;;;;;2.15;0.77;;;;;;;15.38;85.97;98280.75;10224695;28;20081;-66
2021/10/21 01:02:34;;;;;;;2.22;1.13;;;;;;;15.41;85.36;98266.94;10227308;28;20079;-64
2021/10/21 01:07:36;;;;;;;2.53;1.23;;;;;;;15.47;85.15;98249.22;10219942;28;20055;-66
2021/10/21 01:12:37;;;;;;;1.90;1.10;;;;;;;15.54;85.23;98247.38;10224851;28;20051;-64
2021/10/21 01:17:39;;;;;;;2.00;1.63;;;;;;;15.56;85.60;98227.34;10220223;28;20079;-65
2021/10/21 01:22:42;;;;;;;1.70;1.42;;;;;;;15.59;85.74;98206.53;10224196;28;20571;-65
2021/10/21 01:27:45;;;;;;;1.88;1.20;;;;;;;15.63;85.72;98223.88;10219850;28;20078;-65
2021/10/21 01:32:48;;;;;;;2.35;1.15;;;;;;;15.64;86.30;98204.03;10244243;23;20146;-60
2021/10/21 01:37:50;;;;;;;1.40;1.02;;;;;;;15.60;86.83;98167.94;10214118;28;20095;-60
2021/10/21 01:42:51;;;;;;;3.55;1.30;;;;;;;15.62;89.19;98166.72;10217537;28;20468;-59
2021/10/21 01:47:53;;;;;;;2.25;1.25;;;;;;;15.50;92.11;98163.00;10235388;28;20106;-59
2021/10/21 01:52:55;;;;;;;5.63;1.88;;;;;;;15.45;93.65;98166.31;10230187;28;20051;-59
2021/10/21 01:57:56;;;;;;;1.75;1.45;;;;;;;15.43;94.28;98184.44;10246105;28;20050;-57
2021/10/21 02:02:58;;;;;;;2.28;2.05;;;;;;;15.09;100.00;98226.47;10231066;28;20102;-59
2021/10/21 02:07:59;;;;;;;4.00;1.67;;;;;;;14.81;100.00;98232.75;10243311;28;20051;-59
2021/10/21 02:13:01;;;;;;;2.47;1.40;;;;;;;14.63;100.00;98224.44;10246699;28;20075;-60
2021/10/21 02:18:02;;;;;;;2.95;0.68;;;;;;;14.30;95.47;98199.13;10237535;28;20110;-60
2021/10/21 02:23:04;;;;;;;1.77;0.98;;;;;;;14.07;98.23;98188.72;10241665;28;20054;-60
2021/10/21 02:28:05;;;;;;;3.22;0.60;;;;;;;14.21;92.97;98170.06;10244636;28;20468;-59
2021/10/21 02:33:07;;;;;;;2.63;0.47;;;;;;;14.26;86.41;98186.34;10252509;28;20058;-61
2021/10/21 02:38:08;;;;;;;2.47;0.77;;;;;;;14.18;82.45;98178.47;10240381;28;20098;-59
2021/10/21 02:43:10;;;;;;;4.13;0.43;;;;;;;14.08;81.84;98179.66;10236542;28;21422;-59
2021/10/21 02:48:12;;;;;;;0.75;0.28;;;;;;;14.02;81.42;98219.72;10241884;28;20039;-59
2021/10/21 02:53:13;;;;;;;1.25;0.28;;;;;;;13.99;78.35;98204.06;10246240;28;20047;-57
2021/10/21 02:58:15;;;;;;;3.60;0.57;;;;;;;13.97;73.16;98190.91;10250775;28;20051;-59
2021/10/21 03:03:16;;;;;;;2.90;0.45;;;;;;;14.00;73.95;98201.22;10258775;28;20043;-59
2021/10/21 03:08:17;;;;;;;3.15;0.93;;;;;;;13.92;73.24;98204.84;10238114;28;20520;-59
2021/10/21 03:13:19;;;;;;;3.15;0.30;;;;;;;13.91;73.66;98221.09;10241971;28;20051;-58
2021/10/21 03:18:20;;;;;;;3.65;0.38;;;;;;;13.88;73.06;98208.94;10238580;28;20113;-59
2021/10/21 03:23:25;;;;;;;5.45;0.60;;;;;;;13.82;70.49;98249.00;10240733;28;20455;-58
2021/10/21 03:28:27;;;;;;;2.45;0.40;;;;;;;13.84;70.02;98234.44;10234605;28;20133;-59
2021/10/21 03:33:29;;;;;;;4.15;0.60;;;;;;;13.80;69.30;98219.78;10236612;28;20062;-60
2021/10/21 03:38:30;;;;;;;4.07;0.60;;;;;;;13.82;67.78;98225.75;10251030;28;20067;-60
2021/10/21 03:43:33;;;;;;;3.28;0.50;;;;;;;13.78;68.87;98225.34;10231863;28;20324;-60
2021/10/21 03:48:34;;;;;;;3.70;0.60;;;;;;;13.81;68.30;98218.78;10239618;28;20678;-62
2021/10/21 03:53:36;;;;;;;3.60;0.57;;;;;;;13.77;67.67;98214.84;10259440;28;20055;-59
2021/10/21 03:58:37;;;;;;;4.78;1.17;;;;;;;13.78;67.60;98222.66;10237117;28;20047;-60
2021/10/21 04:03:39;;;;;;;1.55;0.40;;;;;;;13.79;65.73;98218.94;10236177;28;20079;-60
2021/10/21 04:08:40;;;;;;;1.27;0.30;;;;;;;13.72;64.58;98180.66;10231127;28;20563;-60
2021/10/21 04:13:42;;;;;;;9.57;0.70;;;;;;;13.86;64.29;98186.94;10240894;28;20051;-60
2021/10/21 04:18:44;;;;;;;2.78;0.60;;;;;;;13.88;64.77;98184.06;10216862;28;20450;-59
2021/10/21 04:23:45;;;;;;;3.47;0.40;;;;;;;13.87;64.39;98185.06;10235222;28;20098;-58
2021/10/21 04:28:47;;;;;;;2.50;0.40;;;;;;;13.83;63.60;98184.66;10239415;28;20047;-62
2021/10/21 04:33:48;;;;;;;3.45;0.30;;;;;;;13.68;64.26;98144.63;10231283;28;20047;-58
2021/10/21 04:38:50;;;;;;;1.77;0.55;;;;;;;13.76;64.10;98140.97;10234550;28;20051;-59
2021/10/21 04:43:51;;;;;;;2.45;0.50;;;;;;;13.72;63.40;98113.81;10232636;28;20181;-60
2021/10/21 04:48:53;;;;;;;4.10;0.45;;;;;;;13.78;63.79;98182.56;10235366;28;20055;-60
2021/10/21 04:53:54;;;;;;;5.97;0.65;;;;;;;13.79;62.80;98164.66;10233414;28;20055;-59
2021/10/21 04:58:56;;;;;;;4.07;0.60;;;;;;;13.86;62.58;98167.38;10229845;28;20687;-59
2021/10/21 05:03:57;;;;;;;4.18;0.95;;;;;;;13.67;62.65;98153.66;10245616;28;20051;-60
2021/10/21 05:08:59;;;;;;;4.60;0.73;;;;;;;13.76;62.88;98199.81;10246233;28;20082;-58
2021/10/21 05:14:00;;;;;;;5.78;1.67;;;;;;;13.73;63.34;98210.88;10238093;28;20048;-60
2021/10/21 05:19:02;;;;;;;6.30;0.75;;;;;;;13.64;64.54;98186.13;10249688;28;20047;-59
2021/10/21 05:24:04;;;;;;;5.10;0.82;;;;;;;13.42;64.08;98156.78;10238084;28;20082;-59
2021/10/21 05:29:05;;;;;;;4.97;0.82;;;;;;;13.38;64.67;98178.75;10248071;28;20078;-60
2021/10/21 05:34:07;;;;;;;5.10;0.93;;;;;;;13.35;64.73;98182.63;10233648;28;21072;-59
2021/10/21 05:39:08;;;;;;;4.22;0.77;;;;;;;13.32;64.48;98160.78;10237993;28;20055;-59
2021/10/21 05:44:09;;;;;;;7.20;1.00;;;;;;;13.20;62.75;98150.59;10242657;28;20080;-60
2021/10/21 05:49:11;;;;;;;4.38;2.00;;;;;;;13.27;62.28;98174.72;10242359;28;21126;-58
2021/10/21 05:54:13;;;;;;;5.55;0.82;;;;;;;13.39;61.84;98194.59;10245415;28;20047;-57
2021/10/21 05:59:14;;;;;;;3.72;0.65;;;;;;;13.51;62.74;98180.69;10242178;28;20475;-58
2021/10/21 06:04:16;;;;;;;5.22;0.88;;;;;;;13.61;59.10;98176.66;10235285;28;20082;-59
2021/10/21 06:09:20;;;;;;;2.75;0.98;;;;;;;13.57;60.33;98223.53;10239274;28;20101;-59
2021/10/21 06:14:22;;;;;;;3.10;0.50;;;;;;;13.56;59.71;98242.44;10243277;28;20058;-60
2021/10/21 06:19:24;;;;;;;6.78;0.80;;;;;;;13.51;58.53;98253.69;10247245;28;20110;-60
2021/10/21 06:24:27;;;;;;;5.13;0.70;;;;;;;13.60;58.70;98297.13;10240645;28;20083;-59
2021/10/21 06:29:29;;;;;;;5.13;0.47;;;;;;;13.55;58.52;98284.34;10237968;28;20059;-60
2021/10/21 06:34:31;;;;;;;3.50;0.47;;;;;;;13.57;58.25;98309.06;10236670;28;20125;-59
2021/10/21 06:39:32;;;;;;;4.13;0.35;;;;;;;13.62;58.53;98337.88;10230457;28;20105;-59
2021/10/21 06:44:34;;;;;;;7.50;0.60;;;;;;;13.53;58.25;98350.53;10240396;28;20055;-59
2021/10/21 06:49:35;;;;;;;2.58;0.20;;;;;;;13.53;58.89;98365.75;10237737;28;20089;-61
2021/10/21 06:54:37;;;;;;;3.42;0.35;;;;;;;13.37;60.54;98428.28;10236485;28;20159;-60
2021/10/21 06:59:38;;;;;;;1.92;0.20;;;;;;;13.23;61.62;98429.91;10256640;28;20055;-59
2021/10/21 07:04:40;;;;;;;4.43;0.30;;;;;;;13.26;63.50;98453.59;10243812;28;20089;-61
2021/10/21 07:10:00;;;;;;;4.10;0.50;;;;;;;13.16;64.41;98463.72;10174766;28;20059;-59
2021/10/21 07:15:07;;;;;;;5.45;0.50;;;;;;;13.06;64.82;98512.91;10171912;28;20066;-56
2021/10/21 07:20:09;;;;;;;3.13;0.20;;;;;;;12.94;65.66;98546.41;10173681;28;20071;-59
2021/10/21 07:25:11;;;;;;;2.25;0.20;;;;;;;12.86;66.74;98563.31;10174013;28;20048;-58
2021/10/21 07:30:13;;;;;;;2.95;0.17;;;;;;;12.89;67.42;98588.84;10186469;28;20087;-59
2021/10/21 07:35:15;;;;;;;1.20;0.10;;;;;;;12.92;67.58;98633.88;10193043;23;20033;-65
2021/10/21 07:40:17;;;;;;;0.88;0.03;;;;;;;12.98;68.43;98667.88;10244355;28;20420;-66
2021/10/21 07:45:19;;;;;;;1.17;0.15;;;;;;;13.01;67.81;98688.06;10208018;28;20079;-65
2021/10/21 07:50:20;;;;;;;1.20;0.10;;;;;;;13.00;67.62;98723.78;10206661;28;20053;-65
2021/10/21 07:55:23;;;;;;;2.60;0.45;;;;;;;13.01;66.62;98750.31;10207996;28;20134;-65
2021/10/21 08:00:24;;;;;;;1.98;0.10;;;;;;;13.08;65.05;98783.34;10209706;28;20508;-63
2021/10/21 08:05:27;;;;;;;0.50;0.10;;;;;;;13.11;65.57;98789.34;10207170;28;20082;-65
2021/10/21 08:10:29;;;;;;;2.47;0.10;;;;;;;13.19;63.85;98842.72;10208354;28;20866;-64
2021/10/21 08:15:30;;;;;;;0.55;0.10;;;;;;;13.22;61.85;98850.41;10202361;28;21209;-65
2021/10/21 08:20:32;;;;;;;1.30;0.00;;;;;;;13.22;60.74;98885.13;10205500;28;20062;-65
2021/10/21 08:25:34;;;;;;;0.35;0.00;;;;;;;13.28;60.72;98919.16;10211302;28;20047;-65
2021/10/21 08:30:38;;;;;;;2.83;0.00;;;;;;;13.32;59.51;98939.19;10245875;28;20082;-65
2021/10/21 08:35:39;;;;;;;;;;;;;;;13.36;59.20;98947.72;10230160;28;20047;-69
2021/10/21 08:40:41;;;;;;;0.50;0.10;;;;;;;13.52;58.40;98990.44;10207947;28;19954;-64
2021/10/21 08:45:46;;;;;;;1.02;0.13;;;;;;;13.76;56.74;98988.66;10203082;28;20067;-65
2021/10/21 08:50:48;;;;;;;0.57;0.10;;;;;;;13.91;54.94;99002.13;10199446;28;20102;-65
2021/10/21 08:55:51;;;;;;;1.65;0.00;;;;;;;14.24;54.50;99026.00;10207526;28;20145;-65
2021/10/21 09:01:02;;;;;;;1.23;0.10;;;;;;;14.73;52.39;99044.44;10204677;28;20827;-65
2021/10/21 09:11:38;;;;;;;2.22;0.30;;;;;;;14.41;53.54;99099.84;10212758;28;20109;-65
2021/10/21 09:16:58;;;;;;;3.65;0.40;;;;;;;14.65;52.54;99093.53;10237335;28;20047;-64
2021/10/21 09:22:00;;;;;;;1.85;0.30;;;;;;;14.72;51.57;99116.94;10283649;28;20110;-66
2021/10/21 09:27:10;;;;;;;2.50;0.35;;;;;;;15.12;50.79;99104.22;10291072;28;20094;-65
2021/10/21 09:32:17;;;;;;;2.80;0.50;;;;;;;16.23;48.39;99142.78;10269414;28;20046;-63
2021/10/21 09:37:34;;;;;;;11.40;1.20;;;;;;;16.81;47.38;99131.25;10268200;28;20153;-64
2021/10/21 09:42:40;;;;;;;1.65;0.40;;;;;;;18.41;42.90;99149.59;10269793;28;20577;-67
2021/10/21 09:47:44;;;;;;;2.58;0.68;;;;;;;20.34;39.58;99146.09;10272814;28;20129;-64
2021/10/21 09:53:08;;;;;;;3.30;0.57;;;;;;;20.37;37.78;99156.50;10263153;28;20134;-62
2021/10/21 09:58:11;;;;;;;2.20;0.50;;;;;;;19.74;39.02;99163.28;10269540;28;20066;-65
2021/10/21 10:03:20;;;;;;;1.80;0.60;;;;;;;18.17;41.00;99176.00;10273816;28;20070;-64
2021/10/21 10:08:26;;;;;;;3.95;0.90;;;;;;;17.79;41.97;99187.13;10264362;28;20063;-65
2021/10/21 10:13:28;;;;;;;2.38;0.60;;;;;;;16.78;44.28;99191.59;10270607;28;20057;-64
2021/10/21 10:18:40;;;;;;;3.30;0.47;;;;;;;15.93;45.83;99232.38;10271959;28;20078;-64
2021/10/21 10:23:51;;;;;;;2.25;0.40;;;;;;;15.60;46.83;99232.66;10270684;28;20141;-69
2021/10/21 10:28:53;;;;;;;4.22;0.70;;;;;;;15.34;47.28;99258.84;10261476;28;20102;-64
2021/10/21 10:33:55;;;;;;;1.77;0.60;;;;;;;14.87;48.75;99272.38;10246712;28;20059;-65
2021/10/21 10:39:05;;;;;;;4.22;0.52;;;;;;;14.54;49.32;99272.50;10261935;28;20078;-64
2021/10/21 10:44:11;;;;;;;2.70;0.60;;;;;;;14.63;49.00;99298.25;10271407;28;20083;-63
2021/10/21 10:49:41;;;;;;;2.15;0.45;;;;;;;14.80;48.41;99294.50;10287581;28;20051;-63
2021/10/21 10:54:42;;;;;;;3.28;0.55;;;;;;;15.69;48.79;99309.38;10295590;28;20496;-64
2021/10/21 10:59:45;;;;;;;2.35;0.68;;;;;;;15.37;48.06;99309.44;10281586;28;20066;-64
2021/10/21 11:04:57;;;;;;;1.80;0.63;;;;;;;15.15;48.11;99319.13;10275369;28;20104;-66
2021/10/21 11:10:19;;;;;;;4.82;0.65;;;;;;;14.82;50.20;99311.25;10289433;28;20680;-65
2021/10/21 11:15:31;;;;;;;4.60;0.73;;;;;;;15.07;48.58;99308.44;10270904;28;20059;-63
2021/10/21 11:20:32;;;;;;;3.55;1.10;;;;;;;15.41;47.31;99295.69;10275579;28;20054;-61
2021/10/21 11:25:37;;;;;;;3.33;0.68;;;;;;;15.92;46.59;99308.56;10265668;28;20070;-64
2021/10/21 11:30:40;;;;;;;3.90;1.05;;;;;;;15.31;47.05;99295.91;10271757;28;20047;-63
2021/10/21 11:35:41;;;;;;;3.63;0.90;;;;;;;15.12;47.01;99290.00;10270699;28;20046;-67
2021/10/21 11:40:51;;;;;;;4.93;1.17;;;;;;;15.15;47.12;99300.34;10276813;28;20555;-64
2021/10/21 11:46:01;;;;;;;4.50;1.50;;;;;;;15.11;47.68;99296.34;10273912;28;20081;-64
2021/10/21 11:51:06;;;;;;;4.57;0.93;;;;;;;15.85;46.23;99298.56;10284072;28;20042;-63
2021/10/21 11:56:08;;;;;;;4.28;1.00;;;;;;;15.38;48.10;99308.41;10270495;28;20133;-66
2021/10/21 12:01:10;;;;;;;5.82;1.08;;;;;;;14.98;49.73;99302.31;10275545;28;20062;-64
2021/10/21 12:06:14;;;;;;;4.53;1.10;;;;;;;15.22;49.79;99307.69;10267685;28;22969;-64
2021/10/21 12:11:18;;;;;;;4.15;0.80;;;;;;;14.96;49.08;99293.59;10274915;28;20129;-66
2021/10/21 12:16:21;;;;;;;;;;;;;;;14.77;49.96;99308.25;10291522;28;20054;-65
2021/10/21 12:21:41;;;;;;;5.47;1.00;;;;;;;14.79;49.75;99324.16;10303920;28;19953;-61
2021/10/21 12:27:00;;;;;;;5.38;1.38;;;;;;;14.70;48.49;99304.59;10288164;28;20364;-62
2021/10/21 12:32:07;;;;;;;;;;;;;;;15.60;46.70;99307.75;10282307;28;21713;-64
2021/10/21 12:37:23;;;;;;;4.45;1.00;;;;;;;15.34;46.60;99312.47;10275609;28;20565;-63
2021/10/21 12:42:24;;;;;;;4.22;1.23;;;;;;;15.37;47.58;99297.88;10276450;28;20066;-65
2021/10/21 12:47:35;;;;;;;6.03;1.25;;;;;;;15.22;46.67;99296.97;10272870;28;20431;-64
2021/10/21 12:52:51;;;;;;;6.50;0.98;;;;;;;15.00;46.00;99305.63;10271960;28;20129;-64
2021/10/21 12:58:09;;;;;;;4.47;1.42;;;;;;;15.06;46.37;99308.59;10274645;28;20104;-66
2021/10/21 13:03:21;;;;;;;4.25;0.90;;;;;;;14.87;46.06;99293.81;10271382;28;20061;-65
2021/10/21 13:08:23;;;;;;;4.78;1.13;;;;;;;14.97;46.42;99297.13;10265380;28;20109;-64
2021/10/21 13:13:37;;;;;;;4.88;1.17;;;;;;;19.50;36.64;99296.13;10267687;28;20066;-62
2021/10/21 13:18:38;;;;;;;3.53;1.10;;;;;;;21.53;32.93;99270.97;10267796;28;20479;-64
2021/10/21 13:23:40;;;;;;;8.35;1.38;;;;;;;18.09;38.84;99273.09;10275637;28;20565;-64
2021/10/21 13:28:42;;;;;;;5.00;1.35;;;;;;;16.56;42.30;99274.00;10265272;28;20157;-65
2021/10/21 13:33:43;;;;;;;6.13;1.20;;;;;;;15.87;43.74;99290.31;10267097;28;20594;-63
2021/10/21 13:38:45;;;;;;;4.47;1.05;;;;;;;15.25;44.85;99283.19;10267050;28;20133;-65
2021/10/21 13:43:46;;;;;;;5.80;1.42;;;;;;;15.24;46.51;99278.84;10271315;28;20059;-63
2021/10/21 13:48:48;;;;;;;5.53;1.55;;;;;;;15.06;47.43;99276.44;10276320;28;20054;-66
2021/10/21 13:53:50;;;;;;;5.53;1.30;;;;;;;15.36;46.60;99290.84;10275707;28;20077;-62
2021/10/21 13:58:51;;;;;;;4.03;1.40;;;;;;;15.19;46.75;99274.88;10273645;28;20079;-62
2021/10/21 14:03:53;;;;;;;8.07;2.45;;;;;;;15.65;46.21;99275.88;10252914;28;20086;-63
2021/10/21 14:08:55;;;;;;;5.80;1.00;;;;;;;16.17;44.95;99255.44;10269011;28;20050;-64
2021/10/21 14:13:59;;;;;;;7.72;1.40;;;;;;;15.84;44.69;99259.31;10269155;28;20078;-67
2021/10/21 14:19:04;;;;;;;2.93;1.00;;;;;;;15.27;45.23;99273.16;10273006;28;20054;-67
2021/10/21 14:24:05;;;;;;;3.33;1.02;;;;;;;15.13;45.50;99278.25;10277723;28;20297;-63
2021/10/21 14:29:09;;;;;;;2.05;0.90;;;;;;;20.14;36.12;99268.56;10279048;28;20568;-66
2021/10/21 14:34:11;;;;;;;4.95;0.80;;;;;;;19.60;35.44;99258.78;10269739;28;20051;-65
2021/10/21 14:39:13;;;;;;;2.50;0.77;;;;;;;19.70;36.59;99269.19;10263941;28;20164;-55
2021/10/21 14:44:14;;;;;;;4.82;2.53;;;;;;;22.80;30.45;99282.50;10269340;28;20070;-63
2021/10/21 14:49:17;;;;;;;4.73;0.93;;;;;;;22.31;31.58;99284.25;10236308;28;20047;-64
2021/10/21 14:54:18;;;;;;;4.18;1.60;;;;;;;18.98;37.79;99287.72;10230772;28;21702;-64
2021/10/21 14:59:19;;;;;;;5.22;0.90;;;;;;;17.02;42.37;99282.84;10230530;28;20058;-62
2021/10/21 15:04:23;;;;;;;4.63;1.40;;;;;;;16.33;44.46;99289.34;10253216;28;20133;-64
2021/10/21 15:25:12;;;;;;;5.93;1.08;;;;;;;15.23;48.90;99290.59;10239565;28;20130;-65
2021/10/21 15:30:14;;;;;;;3.03;0.90;;;;;;;15.02;48.83;99298.22;10238818;28;20071;-65
2021/10/21 15:35:15;;;;;;;3.38;1.13;;;;;;;14.99;48.46;99290.56;10244757;28;20051;-63
2021/10/21 15:40:17;;;;;;;6.53;1.38;;;;;;;14.79;48.90;99292.84;10245022;28;20121;-64
2021/10/21 16:12:05;;;;;;;3.90;1.35;;;;;;;14.44;49.82;99297.63;10259787;28;20097;-63
2021/10/21 16:16:51;;;;;;;6.55;1.27;;;;;;;14.40;52.00;99336.44;10266302;28;20089;-65
2021/10/21 16:21:57;;;;;;;3.72;1.20;;;;;;;14.24;56.09;99427.47;10264533;28;20053;-64
2021/10/21 16:32:07;;;;;;;0.50;0.20;;;;;;;10.65;74.78;99505.19;10255211;28;20066;-62
2021/10/21 16:37:08;;;;;;;1.98;0.20;;;;;;;10.66;76.69;99511.34;10259834;28;20451;-63
2021/10/21 16:42:14;;;;;;;1.50;0.25;;;;;;;10.43;75.36;99535.59;10265504;28;20050;-65
2021/10/21 16:47:16;;;;;;;1.77;1.65;;;;;;;10.49;75.71;99532.38;10266752;28;20051;-65
2021/10/21 16:52:18;;;;;;;2.00;0.38;;;;;;;10.46;76.15;99527.31;10263544;28;20146;-63
2021/10/21 16:57:19;;;;;;;2.92;0.50;;;;;;;10.76;75.44;99517.50;10273230;28;20073;-62
2021/10/21 17:02:23;;;;;;;1.38;0.40;;;;;;;10.93;72.05;99514.13;10295938;28;20131;-66
2021/10/21 17:07:25;;;;;;;1.85;0.60;;;;;;;11.14;72.65;99535.22;10276597;28;20063;-64
2021/10/21 17:12:26;;;;;;;2.53;1.00;;;;;;;11.35;70.00;99528.00;10210243;28;20580;-65
2021/10/21 17:17:28;;;;;;;5.85;2.00;;;;;;;11.51;73.15;99546.84;10233773;28;20055;-64
2021/10/21 17:22:29;;;;;;;4.20;1.55;;;;;;;11.75;74.22;99548.16;10237794;28;20066;-64
2021/10/21 17:27:30;;;;;;;2.50;0.98;;;;;;;11.79;72.32;99562.88;10205149;28;20079;-63
2021/10/21 17:32:32;;;;;;;3.92;1.60;;;;;;;11.64;71.44;99571.34;10201235;28;20138;-65
2021/10/21 17:37:35;;;;;;;2.67;1.30;;;;;;;11.61;73.58;99570.81;10232293;28;20047;-64
2021/10/21 17:42:36;;;;;;;3.72;0.80;;;;;;;11.55;70.98;99576.75;10214967;28;20604;-63
2021/10/21 17:47:38;;;;;;;2.78;1.30;;;;;;;11.58;72.47;99606.59;10202586;28;20183;-63
2021/10/21 17:52:40;;;;;;;2.40;1.58;;;;;;;11.73;72.03;99627.47;10204980;28;20173;-64
2021/10/21 17:57:41;;;;;;;3.10;1.88;;;;;;;11.58;72.27;99641.25;10211132;28;20191;-63
2021/10/21 18:02:43;;;;;;;6.00;2.72;;;;;;;11.56;73.38;99648.56;10208695;28;20449;-64
2021/10/21 18:07:45;;;;;;;3.13;2.10;;;;;;;11.39;71.59;99665.28;10203041;28;20532;-64
2021/10/21 18:12:47;;;;;;;3.83;2.13;;;;;;;11.35;71.24;99677.19;10204946;28;20059;-64
2021/10/21 18:17:49;;;;;;;2.83;1.63;;;;;;;11.36;72.33;99689.56;10206748;28;20059;-62
2021/10/21 18:22:52;;;;;;;3.25;1.83;;;;;;;11.53;74.39;99710.16;10205461;28;20074;-64
2021/10/21 18:27:54;;;;;;;3.03;1.20;;;;;;;11.63;71.60;99708.31;10204527;28;20099;-64
2021/10/21 18:32:56;;;;;;;2.65;0.75;;;;;;;11.40;70.89;99706.94;10204581;28;20268;-63
2021/10/21 18:37:57;;;;;;;3.08;1.38;;;;;;;11.27;72.65;99726.75;10205418;28;20055;-66
2021/10/21 18:42:59;;;;;;;2.05;0.93;;;;;;;11.51;74.75;99730.75;10195651;28;20191;-64
2021/10/21 18:48:01;;;;;;;2.28;1.20;;;;;;;11.48;72.78;99747.03;10201242;28;20067;-63
2021/10/21 18:53:03;;;;;;;1.20;0.45;;;;;;;11.60;73.95;99751.22;10197567;28;20137;-65
2021/10/21 18:58:05;;;;;;;3.45;1.00;;;;;;;11.60;73.80;99764.56;10196154;28;20833;-65
2021/10/21 19:03:06;;;;;;;4.38;1.08;;;;;;;11.60;73.16;99761.88;10206251;28;20070;-65
2021/10/21 19:08:08;;;;;;;2.05;1.00;;;;;;;11.54;71.99;99770.44;10202521;28;20055;-65
2021/10/21 19:13:11;;;;;;;2.65;0.90;;;;;;;11.64;72.79;99778.47;10199892;28;20071;-65
2021/10/21 19:18:13;;;;;;;2.93;1.63;;;;;;;11.53;72.84;99797.25;10200299;28;20069;-65
2021/10/21 19:23:15;;;;;;;2.20;0.68;;;;;;;11.55;73.10;99787.31;10193892;28;20646;-64
2021/10/21 19:28:17;;;;;;;2.47;1.20;;;;;;;11.51;72.76;99805.38;10199028;28;20047;-64
2021/10/21 19:33:19;;;;;;;1.73;0.73;;;;;;;11.59;71.53;99808.22;10203002;28;20078;-63
2021/10/21 19:38:20;;;;;;;3.78;2.13;;;;;;;11.58;72.79;99811.84;10238249;23;20456;-58
2021/10/21 19:43:22;;;;;;;5.20;2.00;;;;;;;11.56;72.57;99815.63;10282803;28;20435;-59
2021/10/21 19:48:23;;;;;;;2.88;1.52;;;;;;;11.68;73.92;99826.03;10283765;28;20073;-59
2021/10/21 19:53:25;;;;;;;2.05;1.27;;;;;;;11.67;73.61;99832.31;10299422;28;20058;-57
2021/10/21 19:58:27;;;;;;;3.42;1.45;;;;;;;11.82;72.75;99829.25;10300717;28;20145;-54
2021/10/21 20:03:32;;;;;;;2.10;0.85;;;;;;;11.53;73.15;99840.75;10299950;28;20050;-58
2021/10/21 20:08:35;;;;;;;2.88;1.30;;;;;;;11.30;73.17;99819.72;10305092;28;20263;-58
2021/10/21 20:13:39;;;;;;;2.17;1.23;;;;;;;11.25;73.63;99853.91;10304964;28;21597;-58
2021/10/21 20:18:41;;;;;;;1.60;0.80;;;;;;;11.03;72.17;99862.13;10307126;28;22048;-57
2021/10/21 20:23:42;;;;;;;2.78;0.90;;;;;;;11.01;73.26;99851.59;10304757;28;20490;-58
2021/10/21 20:28:44;;;;;;;4.30;1.15;;;;;;;11.03;73.61;99862.13;10295000;28;20078;-58
2021/10/21 20:33:46;;;;;;;3.60;1.05;;;;;;;11.01;73.52;99846.28;10283064;28;20075;-58
2021/10/21 20:38:47;;;;;;;4.45;1.77;;;;;;;11.07;72.96;99872.38;10295427;28;20043;-58
2021/10/21 20:43:48;;;;;;;5.30;1.65;;;;;;;10.99;72.14;99898.84;10313463;28;20068;-56
2021/10/21 20:48:50;;;;;;;2.08;1.00;;;;;;;10.99;72.90;99901.50;10297030;28;20078;-57
2021/10/21 20:53:52;;;;;;;8.10;2.08;;;;;;;10.97;72.23;99914.09;10305205;28;20475;-57
2021/10/21 20:58:53;;;;;;;4.47;2.10;;;;;;;10.93;72.52;99908.22;10298613;28;20073;-58
2021/10/21 21:03:57;;;;;;;6.32;2.28;;;;;;;10.95;72.35;99910.75;10307866;28;20109;-62
2021/10/21 21:09:02;;;;;;;3.75;1.40;;;;;;;10.87;71.31;99924.72;10310644;28;20109;-57
2021/10/21 21:14:11;;;;;;;3.55;1.80;;;;;;;10.84;72.84;99935.66;10315355;28;20050;-59
2021/10/21 21:19:13;;;;;;;6.13;1.90;;;;;;;11.01;70.99;99952.81;10314651;28;20077;-58
2021/10/21 21:24:14;;;;;;;2.40;1.88;;;;;;;10.98;70.67;99965.56;10313300;28;20058;-58
2021/10/21 21:29:16;;;;;;;6.25;2.30;;;;;;;10.93;70.82;99972.13;10315688;28;20069;-59
2021/10/21 21:34:19;;;;;;;4.57;1.60;;;;;;;10.96;71.40;99971.88;10313084;28;20118;-58
2021/10/21 21:39:20;;;;;;;3.28;2.00;;;;;;;11.07;71.16;99975.41;10277826;28;20136;-59
2021/10/21 21:44:21;;;;;;;5.97;3.78;;;;;;;10.94;68.56;99978.28;10282331;28;20149;-60
2021/10/21 21:49:30;;;;;;;6.07;2.30;;;;;;;11.04;70.92;99994.34;10272145;28;20049;-58
2021/10/21 21:54:31;;;;;;;5.88;2.63;;;;;;;11.13;71.37;99988.19;10272329;28;20085;-58
2021/10/21 21:59:34;;;;;;;7.25;2.50;;;;;;;11.09;71.00;99987.63;10276021;28;20141;-58
2021/10/21 22:04:35;;;;;;;5.75;2.15;;;;;;;11.08;70.09;100006.38;10272918;28;20054;-57
2021/10/21 22:09:36;;;;;;;6.40;2.20;;;;;;;11.06;70.49;100011.00;10289655;28;20051;-57
2021/10/21 22:14:38;;;;;;;4.63;1.88;;;;;;;10.98;69.55;100010.84;10271089;28;20077;-58
2021/10/21 22:19:40;;;;;;;6.80;1.98;;;;;;;10.66;70.00;100020.59;10273488;28;20042;-57
2021/10/21 22:24:42;;;;;;;6.88;1.80;;;;;;;10.59;69.51;100028.25;10262921;28;20054;-57
2021/10/21 22:29:44;;;;;;;6.18;1.73;;;;;;;10.56;69.43;100030.34;10271107;28;20149;-57
2021/10/21 22:34:46;;;;;;;6.50;2.22;;;;;;;10.41;70.28;100030.63;10272535;28;20077;-57
2021/10/21 22:39:47;;;;;;;7.28;2.10;;;;;;;10.33;69.81;100049.06;10268860;28;20155;-57
2021/10/21 22:45:09;;;;;;;6.05;2.25;;;;;;;10.20;69.67;100033.22;10276154;28;20047;-56
2021/10/21 22:50:11;;;;;;;6.20;2.10;;;;;;;10.18;69.33;100051.13;10271828;28;20668;-56
2021/10/21 22:55:12;;;;;;;7.93;2.10;;;;;;;10.24;69.86;100055.13;10274212;28;20050;-57
2021/10/21 23:00:14;;;;;;;7.95;2.38;;;;;;;10.10;70.29;100053.56;10275898;28;20066;-57
2021/10/21 23:05:17;;;;;;;8.27;2.72;;;;;;;10.10;69.58;100058.88;10270330;28;20109;-56
2021/10/21 23:10:18;;;;;;;6.63;2.13;;;;;;;9.96;68.78;100064.50;10262097;28;20121;-57
2021/10/21 23:15:19;;;;;;;6.88;1.90;;;;;;;9.80;68.80;100076.34;10267455;28;20076;-56
2021/10/21 23:20:21;;;;;;;4.75;2.03;;;;;;;9.72;70.04;100095.56;10271359;28;20074;-57
2021/10/21 23:25:22;;;;;;;7.97;2.47;;;;;;;9.62;69.82;100099.09;10272943;28;20146;-57
2021/10/21 23:30:25;;;;;;;6.78;2.22;;;;;;;9.57;69.49;100106.59;10272727;28;20046;-57
2021/10/21 23:35:26;;;;;;;7.97;2.35;;;;;;;9.70;70.29;100109.97;10270181;28;20552;-56
2021/10/21 23:40:28;;;;;;;13.15;2.30;;;;;;;9.78;68.61;100127.97;10270961;28;20150;-59
2021/10/21 23:45:29;;;;;;;10.80;2.42;;;;;;;9.74;69.87;100132.66;10265896;28;20072;-58
2021/10/21 23:50:31;;;;;;;7.65;1.80;;;;;;;9.88;69.71;100139.56;10266299;28;20606;-57
2021/10/21 23:55:32;;;;;;;9.95;2.28;;;;;;;9.75;69.94;100138.84;10265913;28;20058;-56
